createdAt,value
2022-12-25T00:01:23.274Z,99632.47
2022-12-25T00:03:52.312Z,99634.06
2022-12-25T00:06:20.689Z,99636.72
2022-12-25T00:08:48.718Z,99646.25
2022-12-25T00:11:19.795Z,99641.88
2022-12-25T00:13:48.783Z,99650.47
2022-12-25T00:16:20.306Z,99652.25
2022-12-25T00:18:49.103Z,99656.63
2022-12-25T00:21:18.046Z,99654.91
2022-12-25T00:23:46.072Z,99653.16
2022-12-25T00:26:16.262Z,99646.16
2022-12-25T00:28:45.519Z,99663.66
2022-12-25T00:31:16.035Z,99673.16
2022-12-25T00:33:46.695Z,99673.13
2022-12-25T00:36:16.155Z,99674.84
2022-12-25T00:38:45.241Z,99668.81
2022-12-25T00:41:39.058Z,99670.53
2022-12-25T00:44:08.890Z,99673.00
2022-12-25T00:46:37.408Z,99681.72
2022-12-25T00:49:06.037Z,99695.56
2022-12-25T00:51:34.408Z,99701.72
2022-12-25T00:54:02.414Z,99705.13
2022-12-25T00:56:30.308Z,99708.66
2022-12-25T00:59:01.688Z,99703.47
2022-12-25T01:01:29.891Z,99702.56
2022-12-25T01:03:58.741Z,99688.72
2022-12-25T01:06:26.921Z,99684.47
2022-12-25T01:09:13.229Z,99693.06
2022-12-25T01:11:41.570Z,99694.78
2022-12-25T01:14:09.765Z,99702.63
2022-12-25T01:16:38.670Z,99706.94
2022-12-25T01:19:07.304Z,99705.22
2022-12-25T01:21:35.533Z,99708.72
2022-12-25T01:24:03.622Z,99708.66
2022-12-25T01:26:31.971Z,99701.75
2022-12-25T01:29:00.044Z,99704.25
2022-12-25T01:31:28.030Z,99697.41
2022-12-25T01:33:56.377Z,99698.25
2022-12-25T01:36:26.453Z,99708.69
2022-12-25T01:38:55.159Z,99715.53
2022-12-25T01:41:25.629Z,99718.22
2022-12-25T01:44:02.760Z,99718.16
2022-12-25T01:46:31.604Z,99719.00
2022-12-25T01:49:25.055Z,99722.44
2022-12-25T01:52:00.802Z,99722.56
2022-12-25T01:54:38.313Z,99721.72
2022-12-25T01:57:10.113Z,99722.56
2022-12-25T01:59:37.990Z,99719.91
2022-12-25T02:02:06.417Z,99713.78
2022-12-25T02:04:43.586Z,99716.41
2022-12-25T02:07:18.019Z,99732.94
2022-12-25T02:09:46.881Z,99725.91
2022-12-25T02:12:29.193Z,99731.16
2022-12-25T02:15:04.924Z,99717.19
2022-12-25T02:17:39.152Z,99722.47
2022-12-25T02:20:22.647Z,99726.75
2022-12-25T02:23:25.325Z,99725.75
2022-12-25T02:25:56.597Z,99722.41
2022-12-25T02:28:45.833Z,99718.87
2022-12-25T02:31:18.962Z,99720.66
2022-12-25T02:34:14.678Z,99720.78
2022-12-25T02:36:51.709Z,99721.66
2022-12-25T02:39:43.919Z,99720.75
2022-12-25T02:42:15.708Z,99732.94
2022-12-25T02:45:03.670Z,99723.31
2022-12-25T02:47:51.550Z,99733.81
2022-12-25T02:50:38.910Z,99735.34
2022-12-25T02:53:27.325Z,99733.81
2022-12-25T02:56:15.485Z,99738.12
2022-12-25T02:59:03.801Z,99744.25
2022-12-25T03:01:53.373Z,99743.34
2022-12-25T03:04:41.069Z,99742.50
2022-12-25T03:07:12.849Z,99751.16
2022-12-25T03:10:06.712Z,99757.25
2022-12-25T03:12:50.120Z,99765.91
2022-12-25T03:15:38.735Z,99772.84
2022-12-25T03:18:15.772Z,99776.31
2022-12-25T03:21:02.475Z,99771.09
2022-12-25T03:23:51.961Z,99769.38
2022-12-25T03:26:38.729Z,99772.81
2022-12-25T03:29:06.627Z,99777.19
2022-12-25T03:31:46.157Z,99781.50
2022-12-25T03:34:51.147Z,99788.47
2022-12-25T03:37:45.982Z,99784.97
2022-12-25T03:40:56.411Z,99787.59
2022-12-25T03:43:53.984Z,99789.28
2022-12-25T03:46:41.717Z,99802.31
2022-12-25T03:49:36.896Z,99807.50
2022-12-25T03:52:26.157Z,99808.38
2022-12-25T03:55:15.682Z,99808.38
2022-12-25T03:58:02.089Z,99810.13
2022-12-25T04:00:48.757Z,99807.53
2022-12-25T04:03:37.341Z,99804.91
2022-12-25T04:06:24.289Z,99798.84
2022-12-25T04:09:11.415Z,99807.50
2022-12-25T04:12:02.567Z,99802.31
2022-12-25T04:14:53.096Z,99800.59
2022-12-25T04:17:39.805Z,99797.97
2022-12-25T04:20:27.254Z,99795.34
2022-12-25T04:23:13.925Z,99797.09
2022-12-25T04:26:00.671Z,99791.88
2022-12-25T04:28:47.411Z,99808.28
2022-12-25T04:31:34.160Z,99800.53
2022-12-25T04:34:20.981Z,99804.06
2022-12-25T04:36:49.216Z,99802.28
2022-12-25T04:39:17.242Z,99803.97
2022-12-25T04:41:45.314Z,99804.00
2022-12-25T04:44:13.699Z,99801.28
2022-12-25T04:46:41.712Z,99799.25
2022-12-25T04:49:09.729Z,99791.03
2022-12-25T04:51:38.399Z,99796.06
2022-12-25T04:54:06.308Z,99806.47
2022-12-25T04:56:35.668Z,99795.19
2022-12-25T04:59:06.967Z,99798.06
2022-12-25T05:01:34.950Z,99803.25
2022-12-25T05:04:02.989Z,99823.88
2022-12-25T05:06:31.351Z,99813.59
2022-12-25T05:08:59.287Z,99801.25
2022-12-25T05:11:27.785Z,99793.69
2022-12-25T05:13:57.600Z,99792.97
2022-12-25T05:16:26.606Z,99799.22
2022-12-25T05:18:54.625Z,99799.53
2022-12-25T05:21:23.344Z,99809.66
2022-12-25T05:23:52.027Z,99814.81
2022-12-25T05:26:25.583Z,99807.06
2022-12-25T05:28:54.378Z,99806.22
2022-12-25T05:31:22.527Z,99805.59
2022-12-25T05:33:51.695Z,99806.50
2022-12-25T05:36:20.244Z,99797.00
2022-12-25T05:38:48.094Z,99803.97
2022-12-25T05:41:15.977Z,99803.81
2022-12-25T05:43:44.376Z,99808.88
2022-12-25T05:46:13.874Z,99811.75
2022-12-25T05:48:42.247Z,99820.06
2022-12-25T05:51:12.005Z,99822.59
2022-12-25T05:53:40.953Z,99822.78
2022-12-25T05:56:09.719Z,99822.94
2022-12-25T05:58:39.335Z,99821.16
2022-12-25T06:01:12.118Z,99821.09
2022-12-25T06:03:42.822Z,99834.84
2022-12-25T06:06:13.294Z,99832.31
2022-12-25T06:08:42.096Z,99832.03
2022-12-25T06:11:10.121Z,99826.13
2022-12-25T06:13:38.277Z,99819.06
2022-12-25T06:16:08.329Z,99821.47
2022-12-25T06:18:37.846Z,99814.88
2022-12-25T06:21:09.711Z,99815.63
2022-12-25T06:23:38.408Z,99812.19
2022-12-25T06:26:08.657Z,99818.81
2022-12-25T06:28:36.732Z,99819.81
2022-12-25T06:31:09.549Z,99815.38
2022-12-25T06:33:38.457Z,99813.03
2022-12-25T06:36:11.892Z,99827.44
2022-12-25T06:38:41.035Z,99823.59
2022-12-25T06:41:15.366Z,99839.78
2022-12-25T06:43:43.855Z,99841.72
2022-12-25T06:46:12.700Z,99851.59
2022-12-25T06:48:41.925Z,99859.25
2022-12-25T06:51:10.213Z,99853.59
2022-12-25T06:53:39.920Z,99853.34
2022-12-25T06:56:16.577Z,99856.91
2022-12-25T06:58:50.052Z,99860.41
2022-12-25T07:01:27.799Z,99856.44
2022-12-25T07:04:02.841Z,99861.16
2022-12-25T07:06:31.162Z,99870.75
2022-12-25T07:08:59.725Z,99872.22
2022-12-25T07:11:27.728Z,99872.16
2022-12-25T07:13:55.777Z,99890.03
2022-12-25T07:16:24.301Z,99885.81
2022-12-25T07:18:52.441Z,99891.28
2022-12-25T07:21:21.458Z,99901.75
2022-12-25T07:23:50.697Z,99900.13
2022-12-25T07:26:18.665Z,99908.47
2022-12-25T07:28:46.705Z,99909.50
2022-12-25T07:31:17.029Z,99904.25
2022-12-25T07:33:45.488Z,99910.41
2022-12-25T07:36:14.597Z,99923.16
2022-12-25T07:38:43.145Z,99925.13
2022-12-25T07:41:13.423Z,99928.53
2022-12-25T07:43:41.695Z,99922.84
2022-12-25T07:46:10.590Z,99933.81
2022-12-25T07:48:38.819Z,99947.69
2022-12-25T07:51:10.225Z,99949.66
2022-12-25T07:53:39.228Z,99956.13
2022-12-25T07:56:08.540Z,99954.63
2022-12-25T07:58:36.519Z,99964.47
2022-12-25T08:01:07.745Z,99964.47
2022-12-25T08:03:36.577Z,99964.50
2022-12-25T08:06:07.275Z,99966.28
2022-12-25T08:08:36.912Z,99962.78
2022-12-25T08:11:09.807Z,99969.72
2022-12-25T08:13:38.654Z,99975.81
2022-12-25T08:16:08.852Z,99977.38
2022-12-25T08:18:38.651Z,99979.84
2022-12-25T08:21:09.808Z,99978.75
2022-12-25T08:23:40.014Z,99980.88
2022-12-25T08:26:09.569Z,99982.38
2022-12-25T08:28:37.491Z,99975.94
2022-12-25T08:31:11.156Z,99981.28
2022-12-25T08:33:39.696Z,99987.13
2022-12-25T08:36:10.051Z,99986.37
2022-12-25T08:38:38.564Z,99986.16
2022-12-25T08:41:07.120Z,99989.59
2022-12-25T08:43:35.812Z,99987.13
2022-12-25T08:46:04.160Z,99983.09
2022-12-25T08:48:32.489Z,99982.88
2022-12-25T08:51:01.443Z,99992.44
2022-12-25T08:53:29.458Z,99995.81
2022-12-25T08:56:01.037Z,99986.69
2022-12-25T08:58:29.515Z,99990.97
2022-12-25T09:00:57.734Z,99983.84
2022-12-25T09:03:26.126Z,99993.09
2022-12-25T09:05:55.159Z,99998.81
2022-12-25T09:08:23.196Z,100004.72
2022-12-25T09:10:51.157Z,99998.63
2022-12-25T09:13:19.569Z,100001.75
2022-12-25T09:15:47.661Z,99994.69
2022-12-25T09:18:15.729Z,99999.63
2022-12-25T09:20:44.109Z,99991.00
2022-12-25T09:23:14.309Z,99992.09
2022-12-25T09:25:45.071Z,99989.34
2022-12-25T09:28:13.484Z,99983.97
2022-12-25T09:30:41.639Z,99982.12
2022-12-25T09:33:09.938Z,99983.56
2022-12-25T09:35:38.210Z,99989.19
2022-12-25T09:38:06.239Z,99984.44
2022-12-25T09:40:34.365Z,99992.31
2022-12-25T09:43:03.398Z,99989.50
2022-12-25T09:45:38.266Z,99992.94
2022-12-25T09:48:06.761Z,99996.13
2022-12-25T09:50:51.291Z,99994.00
2022-12-25T09:53:22.695Z,99995.22
2022-12-25T09:56:04.761Z,100000.09
2022-12-25T09:58:34.278Z,99994.72
2022-12-25T10:01:30.096Z,100003.94
2022-12-25T10:04:20.468Z,100003.56
2022-12-25T10:06:48.753Z,100000.06
2022-12-25T10:09:32.481Z,99987.22
2022-12-25T10:12:31.954Z,99991.66
2022-12-25T10:15:21.539Z,99992.56
2022-12-25T10:18:22.337Z,99975.00
2022-12-25T10:20:57.197Z,99972.41
2022-12-25T10:23:38.584Z,99975.47
2022-12-25T10:26:18.962Z,99973.62
2022-12-25T10:28:51.713Z,99971.97
2022-12-25T10:31:25.586Z,99971.53
2022-12-25T10:33:54.583Z,99961.66
2022-12-25T10:36:28.669Z,99968.84
2022-12-25T10:38:57.452Z,99966.91
2022-12-25T10:41:50.703Z,99967.25
2022-12-25T10:44:20.915Z,99969.53
2022-12-25T10:46:55.320Z,99967.16
2022-12-25T10:49:25.864Z,99960.53
2022-12-25T10:51:55.125Z,99950.66
2022-12-25T10:54:29.569Z,99963.00
2022-12-25T10:57:00.903Z,99961.66
2022-12-25T10:59:31.450Z,99966.44
2022-12-25T11:02:10.606Z,99961.28
2022-12-25T11:04:38.755Z,99958.56
2022-12-25T11:07:24.696Z,99948.84
2022-12-25T11:10:16.722Z,99948.44
2022-12-25T11:12:46.028Z,99940.31
2022-12-25T11:15:43.092Z,99935.59
2022-12-25T11:18:27.727Z,99928.31
2022-12-25T11:20:58.874Z,99932.06
2022-12-25T11:23:30.004Z,99925.41
2022-12-25T11:26:08.491Z,99923.44
2022-12-25T11:28:39.527Z,99928.78
2022-12-25T11:31:10.657Z,99929.97
2022-12-25T11:34:10.912Z,99925.03
2022-12-25T11:36:49.878Z,99921.50
2022-12-25T11:39:34.900Z,99924.13
2022-12-25T11:42:39.829Z,99924.22
2022-12-25T11:45:13.873Z,99919.72
2022-12-25T11:47:57.690Z,99918.75
2022-12-25T11:50:44.436Z,99928.09
2022-12-25T11:53:21.094Z,99934.03
2022-12-25T11:56:16.864Z,99918.81
2022-12-25T11:58:48.287Z,99912.13
2022-12-25T12:01:19.712Z,99916.47
2022-12-25T12:03:48.308Z,99917.31
2022-12-25T12:06:25.149Z,99914.44
2022-12-25T12:09:02.727Z,99907.75
2022-12-25T12:11:46.494Z,99904.78
2022-12-25T12:14:27.985Z,99909.94
2022-12-25T12:16:56.027Z,99905.88
2022-12-25T12:19:27.427Z,99912.34
2022-12-25T12:22:01.172Z,99920.69
2022-12-25T12:24:41.067Z,99918.97
2022-12-25T12:27:37.634Z,99913.34
2022-12-25T12:30:06.734Z,99917.69
2022-12-25T12:32:35.224Z,99922.44
2022-12-25T12:35:17.866Z,99919.06
2022-12-25T12:38:16.006Z,99924.91
2022-12-25T12:41:04.808Z,99915.22
2022-12-25T12:43:45.287Z,99913.50
2022-12-25T12:46:31.257Z,99922.97
2022-12-25T12:49:09.138Z,99916.25
2022-12-25T12:51:38.230Z,99914.50
2022-12-25T12:54:23.884Z,99922.13
2022-12-25T12:57:03.000Z,99923.28
2022-12-25T12:59:44.731Z,99931.69
2022-12-25T13:02:34.694Z,99928.62
2022-12-25T13:05:34.032Z,99932.81
2022-12-25T13:08:33.583Z,99930.16
2022-12-25T13:11:19.967Z,99943.50
2022-12-25T13:13:49.062Z,99933.31
2022-12-25T13:16:23.792Z,99930.34
2022-12-25T13:18:53.136Z,99923.66
2022-12-25T13:21:25.782Z,99920.50
2022-12-25T13:24:21.187Z,99922.84
2022-12-25T13:26:49.622Z,99923.63
2022-12-25T13:29:38.137Z,99920.19
2022-12-25T13:32:07.603Z,99919.00
2022-12-25T13:34:41.880Z,99927.34
2022-12-25T13:37:16.000Z,99920.84
2022-12-25T13:39:52.001Z,99926.63
2022-12-25T13:42:21.124Z,99923.56
2022-12-25T13:45:06.221Z,99924.22
2022-12-25T13:47:37.721Z,99925.47
2022-12-25T13:50:16.440Z,99928.88
2022-12-25T13:52:44.765Z,99933.31
2022-12-25T13:55:33.203Z,99939.81
2022-12-25T13:58:03.613Z,99931.25
2022-12-25T14:00:31.510Z,99926.72
2022-12-25T14:03:00.217Z,99927.81
2022-12-25T14:05:37.949Z,99932.75
2022-12-25T14:08:16.767Z,99928.88
2022-12-25T14:10:47.261Z,99932.75
2022-12-25T14:13:16.344Z,99931.47
2022-12-25T14:15:45.506Z,99935.88
2022-12-25T14:18:15.919Z,99940.97
2022-12-25T14:21:06.242Z,99936.38
2022-12-25T14:24:00.366Z,99930.53
2022-12-25T14:26:33.246Z,99934.53
2022-12-25T14:29:16.571Z,99936.56
2022-12-25T14:31:46.731Z,99938.63
2022-12-25T14:34:20.000Z,99937.72
2022-12-25T14:36:48.783Z,99942.16
2022-12-25T14:39:45.335Z,99942.19
2022-12-25T14:42:20.845Z,99949.38
2022-12-25T14:45:21.351Z,99950.53
2022-12-25T14:47:55.213Z,99954.72
2022-12-25T14:50:41.083Z,99950.94
2022-12-25T14:53:21.529Z,99947.81
2022-12-25T14:55:51.593Z,99947.63
2022-12-25T14:58:28.065Z,99949.78
2022-12-25T15:01:06.935Z,99947.16
2022-12-25T15:03:39.003Z,99948.06
2022-12-25T15:06:25.254Z,99951.47
2022-12-25T15:08:58.939Z,99949.75
2022-12-25T15:11:27.218Z,99961.00
2022-12-25T15:13:55.839Z,99950.66
2022-12-25T15:16:29.411Z,99958.44
2022-12-25T15:19:00.681Z,99954.13
2022-12-25T15:21:34.047Z,99946.28
2022-12-25T15:24:03.115Z,99940.22
2022-12-25T15:26:32.220Z,99945.31
2022-12-25T15:29:00.361Z,99944.97
2022-12-25T15:31:31.023Z,99948.50
2022-12-25T15:34:01.337Z,99945.34
2022-12-25T15:36:30.306Z,99934.03
2022-12-25T15:38:59.932Z,99947.03
2022-12-25T15:41:51.571Z,99960.91
2022-12-25T15:44:20.213Z,99957.53
2022-12-25T15:46:48.444Z,99957.53
2022-12-25T15:49:17.285Z,99958.47
2022-12-25T15:51:45.819Z,99954.91
2022-12-25T15:54:14.327Z,99939.34
2022-12-25T15:56:47.903Z,99946.31
2022-12-25T15:59:17.968Z,99948.91
2022-12-25T16:01:51.642Z,99955.84
2022-12-25T16:04:20.555Z,99950.66
2022-12-25T16:06:52.217Z,99950.66
2022-12-25T16:09:21.619Z,99954.13
2022-12-25T16:11:50.094Z,99951.44
2022-12-25T16:14:19.748Z,99946.19
2022-12-25T16:16:48.205Z,99951.44
2022-12-25T16:19:16.270Z,99949.66
2022-12-25T16:21:46.092Z,99947.87
2022-12-25T16:24:14.472Z,99935.72
2022-12-25T16:26:42.931Z,99936.53
2022-12-25T16:29:11.479Z,99940.94
2022-12-25T16:31:40.484Z,99949.53
2022-12-25T16:34:09.142Z,99938.34
2022-12-25T16:36:38.279Z,99937.44
2022-12-25T16:39:06.864Z,99928.72
2022-12-25T16:41:35.001Z,99934.78
2022-12-25T16:44:09.360Z,99933.13
2022-12-25T16:46:38.822Z,99934.00
2022-12-25T16:49:07.052Z,99927.81
2022-12-25T16:51:35.201Z,99926.97
2022-12-25T16:54:06.712Z,99931.31
2022-12-25T16:56:36.788Z,99925.25
2022-12-25T16:59:05.188Z,99922.72
2022-12-25T17:01:33.251Z,99915.00
2022-12-25T17:04:04.297Z,99920.19
2022-12-25T17:06:32.780Z,99919.19
2022-12-25T17:09:02.545Z,99923.56
2022-12-25T17:11:31.807Z,99918.47
2022-12-25T17:14:02.827Z,99917.56
2022-12-25T17:16:36.395Z,99920.09
2022-12-25T17:19:13.242Z,99922.63
2022-12-25T17:21:41.135Z,99923.56
2022-12-25T17:24:09.941Z,99919.19
2022-12-25T17:26:44.147Z,99925.41
2022-12-25T17:29:15.901Z,99927.00
2022-12-25T17:31:46.833Z,99921.09
2022-12-25T17:34:15.216Z,99906.34
2022-12-25T17:36:43.350Z,99899.44
2022-12-25T17:39:12.015Z,99896.81
2022-12-25T17:41:43.491Z,99885.53
2022-12-25T17:44:11.642Z,99895.78
2022-12-25T17:46:39.714Z,99894.97
2022-12-25T17:49:12.977Z,99907.16
2022-12-25T17:51:41.009Z,99905.50
2022-12-25T17:54:09.544Z,99904.66
2022-12-25T17:56:37.854Z,99897.69
2022-12-25T17:59:12.260Z,99905.44
2022-12-25T18:01:40.862Z,99906.41
2022-12-25T18:04:10.318Z,99897.72
2022-12-25T18:06:38.472Z,99894.25
2022-12-25T18:09:07.232Z,99899.44
2022-12-25T18:11:39.486Z,99901.19
2022-12-25T18:14:09.623Z,99897.69
2022-12-25T18:16:40.290Z,99897.72
2022-12-25T18:19:09.618Z,99889.91
2022-12-25T18:21:38.272Z,99897.69
2022-12-25T18:24:09.582Z,99890.78
2022-12-25T18:26:38.056Z,99888.16
2022-12-25T18:29:07.200Z,99881.22
2022-12-25T18:31:35.357Z,99876.88
2022-12-25T18:34:04.229Z,99883.81
2022-12-25T18:36:32.594Z,99881.19
2022-12-25T18:39:00.584Z,99882.97
2022-12-25T18:41:29.210Z,99885.59
2022-12-25T18:43:57.641Z,99894.22
2022-12-25T18:46:27.081Z,99890.75
2022-12-25T18:48:56.982Z,99880.28
2022-12-25T18:51:28.708Z,99876.00
2022-12-25T18:54:01.867Z,99871.66
2022-12-25T18:56:29.930Z,99875.00
2022-12-25T18:59:00.874Z,99871.59
2022-12-25T19:01:29.497Z,99875.16
2022-12-25T19:04:04.530Z,99879.37
2022-12-25T19:06:34.157Z,99870.72
2022-12-25T19:09:09.363Z,99866.31
2022-12-25T19:11:45.858Z,99867.16
2022-12-25T19:14:15.422Z,99863.75
2022-12-25T19:16:44.144Z,99866.25
2022-12-25T19:19:12.408Z,99868.91
2022-12-25T19:21:40.998Z,99861.13
2022-12-25T19:24:09.475Z,99868.84
2022-12-25T19:26:37.945Z,99872.22
2022-12-25T19:29:06.029Z,99867.97
2022-12-25T19:31:34.885Z,99861.81
2022-12-25T19:34:05.465Z,99871.28
2022-12-25T19:36:33.514Z,99880.16
2022-12-25T19:39:01.926Z,99888.81
2022-12-25T19:41:29.933Z,99876.56
2022-12-25T19:43:57.999Z,99871.53
2022-12-25T19:46:28.990Z,99867.09
2022-12-25T19:48:57.283Z,99866.16
2022-12-25T19:51:28.373Z,99855.84
2022-12-25T19:53:57.020Z,99859.16
2022-12-25T19:56:27.085Z,99872.31
2022-12-25T19:58:55.473Z,99864.44
2022-12-25T20:01:25.723Z,99859.41
2022-12-25T20:03:54.798Z,99845.56
2022-12-25T20:06:26.397Z,99830.69
2022-12-25T20:09:00.260Z,99822.81
2022-12-25T20:11:30.732Z,99810.72
2022-12-25T20:13:59.328Z,99823.72
2022-12-25T20:16:27.659Z,99826.25
2022-12-25T20:18:56.826Z,99822.88
2022-12-25T20:21:27.497Z,99835.03
2022-12-25T20:23:56.398Z,99838.59
2022-12-25T20:26:28.727Z,99842.00
2022-12-25T20:28:57.536Z,99821.03
2022-12-25T20:31:28.486Z,99825.25
2022-12-25T20:33:59.001Z,99815.81
2022-12-25T20:36:34.444Z,99819.28
2022-12-25T20:39:05.061Z,99817.66
2022-12-25T20:41:33.408Z,99814.34
2022-12-25T20:44:02.105Z,99814.28
2022-12-25T20:46:30.263Z,99809.84
2022-12-25T20:48:59.047Z,99806.38
2022-12-25T20:51:27.290Z,99798.53
2022-12-25T20:53:55.974Z,99807.28
2022-12-25T20:56:26.019Z,99809.75
2022-12-25T20:58:59.120Z,99815.09
2022-12-25T21:01:29.539Z,99821.16
2022-12-25T21:03:58.195Z,99821.94
2022-12-25T21:06:26.372Z,99815.88
2022-12-25T21:08:55.000Z,99825.37
2022-12-25T21:13:50.565Z,99809.00
2022-12-25T21:16:21.658Z,99809.03
2022-12-25T21:18:51.186Z,99803.87
2022-12-25T21:21:20.649Z,99818.59
2022-12-25T21:23:48.673Z,99816.75
2022-12-25T21:26:22.272Z,99809.78
2022-12-25T21:28:52.892Z,99798.38
2022-12-25T21:31:21.574Z,99807.16
2022-12-25T21:33:54.647Z,99804.56
2022-12-25T21:36:24.504Z,99793.41
2022-12-25T21:38:57.770Z,99790.78
2022-12-25T21:41:27.442Z,99794.19
2022-12-25T21:43:56.257Z,99779.41
2022-12-25T21:46:24.937Z,99770.78
2022-12-25T21:48:54.368Z,99776.88
2022-12-25T21:51:47.989Z,99776.75
2022-12-25T21:54:17.288Z,99789.09
2022-12-25T21:56:47.357Z,99794.25
2022-12-25T21:59:18.082Z,99810.87
2022-12-25T22:01:46.645Z,99811.44
2022-12-25T22:04:16.649Z,99815.00
2022-12-25T22:07:04.854Z,99821.75
2022-12-25T22:09:33.393Z,99815.91
2022-12-25T22:12:20.398Z,99808.13
2022-12-25T22:14:56.329Z,99806.38
